Time;durP1;ratioP1;P1;durP2;ratioP2;P2;SDS_P1;SDS_P2;PMS_P1;PMS_P2;Temp;Humidity;BMP_temperature;BMP_pressure;BME280_temperature;BME280_humidity;BME280_pressure;Samples;Min_cycle;Max_cycle;Signal;HPM_P1;HPM_P2
2022/09/29 00:02:15;;;;;;;60.50;20.70;;;;;;;5.32;89.78;98811.30;105905;1278;24912;-76
2022/09/29 00:04:46;;;;;;;58.60;19.30;;;;;;;5.30;89.66;98815.79;105874;1278;25492;-77
2022/09/29 00:07:17;;;;;;;52.00;17.00;;;;;;;5.27;89.73;98821.92;105861;1278;22851;-77
2022/09/29 00:09:48;;;;;;;45.30;15.50;;;;;;;5.26;89.80;98822.30;105796;1277;24439;-76
2022/09/29 00:12:19;;;;;;;38.50;12.80;;;;;;;5.26;89.75;98827.63;105864;1279;22506;-76
2022/09/29 00:14:50;;;;;;;37.40;12.90;;;;;;;5.25;89.85;98835.17;105869;1278;22716;-77
2022/09/29 00:17:21;;;;;;;32.20;9.00;;;;;;;5.24;89.86;98835.65;105897;1278;22564;-77
2022/09/29 00:19:53;;;;;;;29.10;8.50;;;;;;;5.22;89.87;98832.95;105828;1278;22596;-76
2022/09/29 00:22:24;;;;;;;23.50;6.50;;;;;;;5.21;89.86;98837.21;105915;1278;22569;-76
2022/09/29 00:24:56;;;;;;;15.90;5.10;;;;;;;5.20;90.08;98835.28;105905;1278;22680;-76
2022/09/29 00:27:29;;;;;;;20.90;6.20;;;;;;;5.21;90.18;98829.98;105841;1279;22631;-76
2022/09/29 00:30:00;;;;;;;16.10;3.80;;;;;;;5.20;90.23;98827.84;105857;1279;22566;-75
2022/09/29 00:32:31;;;;;;;13.70;3.50;;;;;;;5.21;90.19;98829.81;105883;1279;22585;-76
2022/09/29 00:35:02;;;;;;;15.00;3.90;;;;;;;5.21;90.20;98833.60;105847;1278;22587;-75
2022/09/29 00:37:32;;;;;;;12.60;3.40;;;;;;;5.21;90.23;98828.46;105825;1279;22627;-76
2022/09/29 00:40:05;;;;;;;14.00;3.50;;;;;;;5.21;90.36;98826.31;105908;1279;24296;-77
2022/09/29 00:42:36;;;;;;;12.70;3.70;;;;;;;5.22;90.41;98826.05;105963;1278;23953;-76
2022/09/29 00:45:16;;;;;;;11.00;3.40;;;;;;;5.21;90.56;98822.38;105826;1278;22610;-77
2022/09/29 00:47:53;;;;;;;14.60;3.80;;;;;;;5.21;90.55;98821.56;105814;1277;22719;-76
2022/09/29 00:50:33;;;;;;;12.70;3.20;;;;;;;5.21;90.71;98818.00;105937;1278;25313;-78
2022/09/29 00:53:10;;;;;;;12.10;3.90;;;;;;;5.21;90.70;98821.52;105837;1278;22602;-77
2022/09/29 00:55:45;;;;;;;14.30;3.50;;;;;;;5.20;90.65;98819.34;105826;1278;22647;-76
2022/09/29 00:58:26;;;;;;;17.80;4.00;;;;;;;5.20;90.66;98819.98;106037;1278;22567;-77
2022/09/29 01:00:57;;;;;;;12.20;3.70;;;;;;;5.19;90.46;98828.02;105777;1278;25381;-77
2022/09/29 01:03:31;;;;;;;13.00;3.20;;;;;;;5.17;90.47;98827.95;105848;1278;22698;-75
2022/09/29 01:06:09;;;;;;;11.90;3.00;;;;;;;5.16;90.47;98829.21;105888;1279;24385;-77
2022/09/29 01:08:45;;;;;;;14.70;4.10;;;;;;;5.14;90.49;98827.94;105973;1279;25479;-76
2022/09/29 01:11:18;;;;;;;11.60;3.50;;;;;;;5.11;90.56;98831.81;105849;1278;23210;-77
2022/09/29 01:13:49;;;;;;;12.90;3.70;;;;;;;5.10;90.54;98835.05;105944;1278;26780;-76
2022/09/29 01:16:21;;;;;;;16.90;3.80;;;;;;;5.09;90.61;98841.05;105880;1278;24240;-76
2022/09/29 01:18:53;;;;;;;12.50;3.20;;;;;;;5.08;90.58;98842.66;105828;1278;22547;-77
2022/09/29 01:21:34;;;;;;;15.10;4.70;;;;;;;5.07;90.62;98849.42;105889;1278;22800;-77
2022/09/29 01:24:17;;;;;;;;;;;;;;;5.07;90.58;98853.80;105910;1278;25389;-77
2022/09/29 01:27:19;;;;;;;12.40;3.50;;;;;;;5.03;90.57;98853.34;104933;1284;24239;-77
2022/09/29 01:30:12;;;;;;;12.40;2.70;;;;;;;5.02;90.52;98849.89;104679;1290;24220;-77
2022/09/29 01:33:03;;;;;;;11.10;3.90;;;;;;;4.99;90.39;98852.79;104662;1290;23824;-77
2022/09/29 01:35:43;;;;;;;14.00;3.50;;;;;;;4.96;90.44;98855.61;104639;1290;22611;-75
2022/09/29 01:38:30;;;;;;;12.00;3.20;;;;;;;4.92;90.29;98850.56;104759;1287;22582;-76
2022/09/29 01:41:09;;;;;;;9.90;3.00;;;;;;;4.90;90.32;98852.88;104661;1290;25161;-75
2022/09/29 01:43:48;;;;;;;13.30;3.00;;;;;;;4.87;90.18;98856.64;104723;1287;22594;-75
2022/09/29 01:46:24;;;;;;;11.60;3.30;;;;;;;4.81;89.96;98859.45;104654;1290;24262;-76
2022/09/29 01:48:58;;;;;;;12.50;2.80;;;;;;;4.76;89.90;98857.85;104757;1290;26246;-77
2022/09/29 01:51:36;;;;;;;11.60;2.80;;;;;;;4.73;89.84;98861.70;104712;1290;22547;-76
2022/09/29 01:54:17;;;;;;;11.10;2.60;;;;;;;4.70;89.99;98859.94;104663;1290;22617;-77
2022/09/29 01:56:54;;;;;;;10.40;2.60;;;;;;;4.67;89.99;98863.30;104662;1290;22594;-77
2022/09/29 01:59:30;;;;;;;12.70;3.40;;;;;;;4.63;89.91;98865.22;104667;1290;22685;-76
2022/09/29 02:02:08;;;;;;;12.20;3.80;;;;;;;4.62;90.02;98865.68;104812;1290;25382;-78
2022/09/29 02:04:45;;;;;;;11.40;3.00;;;;;;;4.61;90.03;98868.49;104781;1284;22547;-76
2022/09/29 02:07:20;;;;;;;13.70;3.70;;;;;;;4.61;90.26;98868.89;105305;1279;24610;-74
2022/09/29 02:09:59;;;;;;;14.90;4.40;;;;;;;4.60;90.17;98870.09;105860;1278;22714;-77
2022/09/29 02:12:35;;;;;;;14.80;4.30;;;;;;;4.60;90.28;98872.39;105883;1279;22538;-76
2022/09/29 02:15:12;;;;;;;17.40;5.10;;;;;;;4.61;90.40;98876.94;105858;1278;24522;-77
2022/09/29 02:17:47;;;;;;;16.20;4.40;;;;;;;4.62;90.56;98878.06;106073;1279;22664;-75
2022/09/29 02:20:19;;;;;;;17.50;5.00;;;;;;;4.62;90.53;98882.02;105848;1278;22538;-76
2022/09/29 02:22:51;;;;;;;14.50;4.40;;;;;;;4.62;90.68;98880.38;105853;1278;22580;-76
2022/09/29 02:25:23;;;;;;;17.20;4.50;;;;;;;4.62;90.80;98874.49;105838;1278;25315;-77
2022/09/29 02:27:55;;;;;;;12.20;3.90;;;;;;;4.61;90.81;98874.33;105965;1279;22516;-76
2022/09/29 02:30:27;;;;;;;11.50;3.30;;;;;;;4.60;90.71;98877.71;105973;1279;24342;-76
2022/09/29 02:32:58;;;;;;;15.00;3.90;;;;;;;4.56;90.52;98877.63;105870;1279;24351;-76
2022/09/29 02:35:40;;;;;;;12.50;3.60;;;;;;;4.55;90.50;98880.98;105883;1279;22569;-76
2022/09/29 02:38:21;;;;;;;13.00;4.00;;;;;;;4.52;90.45;98884.84;105894;1279;25252;-77
2022/09/29 02:41:02;;;;;;;11.50;3.30;;;;;;;4.48;90.30;98886.67;105859;1279;22511;-76
2022/09/29 02:43:45;;;;;;;13.80;3.90;;;;;;;4.44;90.23;98888.79;105959;1278;24270;-76
2022/09/29 02:46:34;;;;;;;12.00;3.30;;;;;;;4.40;90.31;98886.44;105804;1278;24841;-76
2022/09/29 02:49:25;;;;;;;13.50;3.20;;;;;;;4.37;90.25;98878.23;105878;1278;22556;-77
2022/09/29 02:51:59;;;;;;;16.80;4.60;;;;;;;4.33;90.17;98874.08;105826;1278;22562;-76
2022/09/29 02:54:47;;;;;;;13.40;3.90;;;;;;;4.30;90.20;98875.41;105820;1279;22723;-76
2022/09/29 02:57:25;;;;;;;16.30;3.80;;;;;;;4.27;90.18;98872.40;105782;1279;22550;-76
2022/09/29 03:00:07;;;;;;;11.00;2.90;;;;;;;4.23;90.04;98873.22;106005;1278;25292;-76
2022/09/29 03:02:39;;;;;;;12.60;3.50;;;;;;;4.20;89.99;98875.90;105869;1278;22750;-76
2022/09/29 03:05:15;;;;;;;15.60;5.20;;;;;;;4.18;89.99;98880.19;105865;1279;22558;-76
2022/09/29 03:07:46;;;;;;;21.10;7.80;;;;;;;4.14;90.06;98880.85;105857;1278;22537;-77
2022/09/29 03:10:18;;;;;;;20.70;9.80;;;;;;;4.10;89.96;98881.27;105925;1279;24286;-76
2022/09/29 03:12:49;;;;;;;21.00;9.40;;;;;;;4.07;89.93;98881.19;105874;1278;26123;-76
2022/09/29 03:15:20;;;;;;;22.00;9.00;;;;;;;4.04;89.90;98884.58;105841;1278;24418;-76
2022/09/29 03:17:55;;;;;;;25.40;10.20;;;;;;;4.01;89.97;98884.26;105829;1279;22663;-76
2022/09/29 03:20:26;;;;;;;25.70;12.00;;;;;;;3.97;89.87;98886.73;105920;1278;24307;-75
2022/09/29 03:22:58;;;;;;;28.00;13.00;;;;;;;3.94;89.85;98885.70;105841;1279;25237;-77
2022/09/29 03:25:29;;;;;;;30.40;13.70;;;;;;;3.90;89.80;98887.59;105861;1278;22556;-76
2022/09/29 03:28:01;;;;;;;27.00;11.50;;;;;;;3.87;89.85;98889.16;105888;1279;22626;-75
2022/09/29 03:30:32;;;;;;;27.50;10.40;;;;;;;3.83;89.93;98891.63;105810;1278;24419;-76
2022/09/29 03:33:04;;;;;;;21.60;8.40;;;;;;;3.80;90.02;98892.31;105826;1278;22551;-75
2022/09/29 03:35:34;;;;;;;23.20;8.00;;;;;;;3.79;90.00;98895.88;105826;1279;22544;-76
2022/09/29 03:38:05;;;;;;;17.80;7.20;;;;;;;3.79;90.18;98899.90;105893;1278;25581;-77
2022/09/29 03:40:36;;;;;;;17.80;6.90;;;;;;;3.78;90.18;98900.55;105825;1279;24243;-78
2022/09/29 03:43:09;;;;;;;14.90;5.60;;;;;;;3.77;90.14;98904.82;105838;1279;25312;-77
2022/09/29 03:45:49;;;;;;;15.40;5.40;;;;;;;3.74;90.17;98905.55;105864;1278;22672;-79
2022/09/29 03:48:22;;;;;;;14.10;4.60;;;;;;;3.72;90.20;98902.66;105920;1278;25251;-76
2022/09/29 03:50:54;;;;;;;16.70;5.30;;;;;;;3.71;90.16;98900.96;105898;1279;22545;-77
2022/09/29 03:53:25;;;;;;;18.00;4.60;;;;;;;3.69;90.29;98899.16;105881;1278;22595;-76
2022/09/29 03:55:56;;;;;;;15.60;4.70;;;;;;;3.68;90.20;98907.11;105827;1279;22556;-77
2022/09/29 03:58:27;;;;;;;15.00;5.30;;;;;;;3.65;90.38;98902.88;105883;1279;26525;-74
2022/09/29 04:01:00;;;;;;;19.90;5.30;;;;;;;3.65;90.31;98907.73;105883;1279;24534;-76
2022/09/29 04:03:31;;;;;;;21.70;5.10;;;;;;;3.63;90.24;98909.23;105920;1278;22537;-76
2022/09/29 04:06:02;;;;;;;20.10;5.50;;;;;;;3.60;90.29;98912.67;105899;1278;23095;-76
2022/09/29 04:08:35;;;;;;;15.30;5.00;;;;;;;3.60;90.49;98913.58;105850;1278;22685;-76
2022/09/29 04:11:07;;;;;;;18.00;5.00;;;;;;;3.60;90.77;98912.33;105851;1278;26527;-75
2022/09/29 04:13:39;;;;;;;13.90;5.50;;;;;;;3.60;90.68;98918.20;105823;1278;25249;-75
2022/09/29 04:16:10;;;;;;;13.80;4.40;;;;;;;3.58;90.62;98917.05;105883;1279;22559;-75
2022/09/29 04:18:41;;;;;;;18.70;5.00;;;;;;;3.56;90.60;98918.45;105829;1279;22546;-76
2022/09/29 04:21:13;;;;;;;18.10;5.60;;;;;;;3.54;90.53;98917.29;105945;1278;24248;-76
2022/09/29 04:23:45;;;;;;;17.00;5.80;;;;;;;3.52;90.51;98919.60;106095;1278;25368;-75
2022/09/29 04:26:16;;;;;;;17.60;5.70;;;;;;;3.51;90.46;98920.02;105961;1279;22644;-74
2022/09/29 04:28:47;;;;;;;18.90;6.00;;;;;;;3.50;90.49;98927.42;105919;1278;24232;-75
2022/09/29 04:31:18;;;;;;;19.50;6.80;;;;;;;3.48;90.51;98926.31;105863;1278;22559;-75
2022/09/29 04:33:50;;;;;;;20.80;6.10;;;;;;;3.47;90.56;98925.55;105815;1279;23506;-75
2022/09/29 04:36:21;;;;;;;16.20;5.40;;;;;;;3.48;90.79;98929.87;105838;1279;25283;-75
2022/09/29 04:38:53;;;;;;;16.20;5.40;;;;;;;3.47;90.70;98931.42;105877;1279;22634;-77
2022/09/29 04:41:25;;;;;;;12.80;5.40;;;;;;;3.47;91.03;98931.57;105823;1279;25478;-74
2022/09/29 04:43:56;;;;;;;18.90;4.70;;;;;;;3.46;91.15;98930.98;105864;1279;25211;-76
2022/09/29 04:46:28;;;;;;;11.60;3.60;;;;;;;3.45;91.04;98931.05;105853;1278;24384;-75
2022/09/29 04:48:59;;;;;;;12.70;3.80;;;;;;;3.43;91.06;98938.84;106077;1278;22662;-75
2022/09/29 04:51:30;;;;;;;11.30;3.20;;;;;;;3.41;91.02;98941.14;105786;1279;22564;-74
2022/09/29 04:54:01;;;;;;;15.90;3.80;;;;;;;3.41;91.25;98948.96;105796;1279;25403;-72
2022/09/29 04:56:32;;;;;;;14.60;3.30;;;;;;;3.40;91.15;98954.02;105820;1279;24267;-72
2022/09/29 04:59:04;;;;;;;10.50;2.70;;;;;;;3.40;90.91;98955.64;105800;1279;24414;-72
2022/09/29 05:01:35;;;;;;;12.70;2.80;;;;;;;3.39;90.90;98953.52;105809;1279;25257;-74
2022/09/29 05:04:07;;;;;;;12.00;3.60;;;;;;;3.38;90.91;98948.67;105815;1279;25244;-73
2022/09/29 05:06:39;;;;;;;14.30;4.90;;;;;;;3.36;90.90;98949.23;105897;1279;23439;-73
2022/09/29 05:09:10;;;;;;;14.20;3.70;;;;;;;3.37;91.19;98950.21;105887;1278;22594;-73
2022/09/29 05:11:42;;;;;;;15.90;4.30;;;;;;;3.40;91.28;98947.27;105902;1279;22547;-74
2022/09/29 05:14:13;;;;;;;15.40;4.00;;;;;;;3.40;91.13;98943.40;105963;1279;22549;-73
2022/09/29 05:16:44;;;;;;;12.80;3.70;;;;;;;3.39;91.11;98942.24;105822;1279;23947;-73
2022/09/29 05:19:15;;;;;;;17.10;5.40;;;;;;;3.39;91.06;98940.90;105814;1279;22781;-73
2022/09/29 05:21:46;;;;;;;16.70;5.80;;;;;;;3.41;91.19;98942.79;105804;1278;24342;-72
2022/09/29 05:24:17;;;;;;;20.60;6.90;;;;;;;3.41;91.18;98941.78;105692;1279;22626;-73
2022/09/29 05:26:49;;;;;;;21.90;7.10;;;;;;;3.41;91.35;98939.08;105881;1279;22543;-73
2022/09/29 05:29:22;;;;;;;42.50;15.20;;;;;;;3.44;91.42;98942.76;105849;1278;24818;-74
2022/09/29 05:31:53;;;;;;;75.10;24.90;;;;;;;3.45;91.65;98947.32;106073;1279;22701;-73
2022/09/29 05:34:25;;;;;;;90.50;29.30;;;;;;;3.48;91.85;98947.38;105842;1279;25362;-76
2022/09/29 05:36:56;;;;;;;111.50;38.60;;;;;;;3.51;92.06;98951.42;105781;1279;24273;-74
2022/09/29 05:39:30;;;;;;;127.30;48.00;;;;;;;3.53;92.10;98954.25;105790;1279;22715;-75
2022/09/29 05:42:02;;;;;;;146.20;56.10;;;;;;;3.55;92.16;98961.77;105760;1279;24578;-73
2022/09/29 05:44:33;;;;;;;157.10;63.90;;;;;;;3.58;92.27;98966.16;105794;1278;25493;-73
2022/09/29 05:47:05;;;;;;;121.30;46.00;;;;;;;3.59;92.28;98963.64;105783;1279;22596;-73
2022/09/29 05:49:36;;;;;;;83.20;34.50;;;;;;;3.62;92.44;98964.15;105777;1279;25457;-75
2022/09/29 05:52:07;;;;;;;73.00;24.60;;;;;;;3.65;92.59;98968.41;105855;1278;25482;-73
2022/09/29 05:54:39;;;;;;;37.80;15.00;;;;;;;3.69;92.68;98973.48;105745;1278;23213;-73
2022/09/29 05:57:10;;;;;;;33.10;12.60;;;;;;;3.73;92.93;98972.63;105790;1279;22557;-73
2022/09/29 05:59:41;;;;;;;32.10;12.50;;;;;;;3.77;92.95;98976.33;105807;1279;26640;-74
2022/09/29 06:02:12;;;;;;;29.30;11.40;;;;;;;3.80;93.05;98980.89;105789;1278;26582;-73
2022/09/29 06:04:43;;;;;;;30.40;11.20;;;;;;;3.84;93.09;98979.48;105786;1279;24416;-74
2022/09/29 06:07:15;;;;;;;27.80;10.60;;;;;;;3.87;93.25;98982.39;105808;1279;24233;-75
2022/09/29 06:09:46;;;;;;;26.60;8.80;;;;;;;3.91;93.34;98991.11;105849;1278;24332;-74
2022/09/29 06:12:18;;;;;;;25.50;10.90;;;;;;;3.95;93.47;98989.76;105815;1278;24239;-74
2022/09/29 06:14:49;;;;;;;22.10;9.30;;;;;;;4.00;93.55;98990.73;105900;1278;24255;-74
2022/09/29 06:17:21;;;;;;;26.70;10.00;;;;;;;4.04;93.72;98993.27;105803;1279;22621;-74
2022/09/29 06:19:52;;;;;;;27.60;11.10;;;;;;;4.09;93.96;98993.36;105838;1278;24455;-74
2022/09/29 06:22:23;;;;;;;27.80;10.80;;;;;;;4.15;94.18;98995.56;105826;1278;24328;-73
2022/09/29 06:24:54;;;;;;;22.50;8.40;;;;;;;4.21;94.29;98991.67;105772;1279;22623;-74
2022/09/29 06:27:25;;;;;;;21.90;9.40;;;;;;;4.26;94.43;98993.44;105821;1279;23028;-73
2022/09/29 06:29:56;;;;;;;25.80;11.50;;;;;;;4.33;94.70;98996.05;105757;1278;22691;-73
2022/09/29 06:32:27;;;;;;;27.90;12.40;;;;;;;4.39;94.88;98998.25;105799;1279;22623;-74
2022/09/29 06:37:48;;;;;;;28.70;12.50;;;;;;;4.54;95.27;99004.42;105848;1279;25378;-73
2022/09/29 06:40:22;;;;;;;27.70;13.10;;;;;;;4.60;95.45;99004.11;105796;1279;22589;-74
2022/09/29 06:42:55;;;;;;;27.60;13.70;;;;;;;4.66;95.60;99010.78;105822;1279;22916;-73
2022/09/29 06:45:26;;;;;;;36.60;14.80;;;;;;;4.74;95.85;99012.06;105761;1279;24301;-74
2022/09/29 06:48:02;;;;;;;33.80;15.40;;;;;;;4.81;96.18;99005.74;105746;1279;22637;-73
2022/09/29 06:50:34;;;;;;;33.50;17.10;;;;;;;4.92;96.59;99008.58;105810;1279;25329;-73
2022/09/29 06:53:07;;;;;;;37.70;19.70;;;;;;;5.02;96.70;99008.95;105834;1279;25254;-73
2022/09/29 06:55:39;;;;;;;36.30;16.40;;;;;;;5.11;96.57;99010.53;105801;1279;25265;-74
2022/09/29 06:58:10;;;;;;;29.80;13.40;;;;;;;5.20;96.93;99011.13;105751;1278;24372;-74
2022/09/29 07:00:41;;;;;;;29.50;14.40;;;;;;;5.28;97.09;99012.10;105796;1278;22574;-73
2022/09/29 07:03:12;;;;;;;30.40;13.10;;;;;;;5.37;97.33;99016.36;105842;1279;25331;-70
2022/09/29 07:05:44;;;;;;;29.60;12.50;;;;;;;5.46;97.25;99017.74;105790;1279;24365;-74
2022/09/29 07:08:15;;;;;;;29.00;11.70;;;;;;;5.53;97.25;99015.08;105799;1279;24239;-74
2022/09/29 07:10:47;;;;;;;29.50;11.80;;;;;;;5.62;97.41;99019.27;105861;1279;22727;-73
2022/09/29 07:13:18;;;;;;;29.20;11.70;;;;;;;5.71;97.65;99021.31;105819;1279;22551;-74
2022/09/29 07:15:50;;;;;;;25.00;11.00;;;;;;;5.81;97.93;99022.27;105832;1279;24477;-73
2022/09/29 07:18:21;;;;;;;32.80;13.90;;;;;;;5.92;98.63;99024.48;105818;1279;22704;-73
2022/09/29 07:20:52;;;;;;;28.70;13.00;;;;;;;6.04;99.00;99029.88;105752;1278;22561;-73
2022/09/29 07:23:23;;;;;;;27.00;11.80;;;;;;;6.17;99.16;99031.35;105845;1279;22692;-73
2022/09/29 07:25:56;;;;;;;23.50;10.50;;;;;;;6.27;98.82;99031.02;105806;1279;24439;-73
2022/09/29 07:28:27;;;;;;;25.30;9.40;;;;;;;6.37;98.83;99033.71;105813;1280;24185;-73
2022/09/29 07:31:04;;;;;;;26.10;10.60;;;;;;;6.47;98.71;99036.48;105786;1279;22570;-74
2022/09/29 07:33:35;;;;;;;25.00;11.30;;;;;;;6.58;99.12;99035.91;105852;1281;22622;-74
2022/09/29 07:36:07;;;;;;;26.10;11.10;;;;;;;6.68;99.32;99033.80;105795;1281;22574;-74
2022/09/29 07:38:38;;;;;;;18.30;7.90;;;;;;;6.77;98.90;99028.88;105793;1281;25413;-73
2022/09/29 07:41:11;;;;;;;21.20;8.60;;;;;;;6.84;98.88;99029.70;105794;1279;24323;-73
2022/09/29 07:43:42;;;;;;;19.90;7.50;;;;;;;6.94;98.84;99035.54;105777;1279;22564;-73
2022/09/29 07:46:13;;;;;;;21.90;9.40;;;;;;;7.02;98.48;99031.64;105781;1279;22612;-73
2022/09/29 07:48:45;;;;;;;20.50;9.00;;;;;;;7.09;98.82;99034.38;105790;1279;22639;-73
2022/09/29 07:51:20;;;;;;;24.20;9.40;;;;;;;7.14;98.66;99035.02;105842;1279;24516;-73
2022/09/29 07:53:52;;;;;;;18.00;7.50;;;;;;;7.20;98.53;99036.65;105813;1281;22577;-75
2022/09/29 07:56:24;;;;;;;19.90;8.00;;;;;;;7.29;98.88;99039.08;105782;1281;22633;-74
2022/09/29 07:58:56;;;;;;;23.10;8.80;;;;;;;7.38;98.78;99037.23;105762;1279;25499;-76
2022/09/29 08:01:28;;;;;;;24.20;8.90;;;;;;;7.45;98.70;99039.13;105745;1279;22615;-74
2022/09/29 08:04:00;;;;;;;24.80;10.00;;;;;;;7.55;99.30;99039.95;105818;1281;25264;-74
2022/09/29 08:06:33;;;;;;;21.40;7.70;;;;;;;7.62;98.89;99040.44;105789;1281;25771;-74
2022/09/29 08:09:07;;;;;;;18.80;6.80;;;;;;;7.68;98.60;99048.93;105798;1281;22564;-74
2022/09/29 08:11:42;;;;;;;16.40;5.90;;;;;;;7.73;98.63;99048.84;105888;1281;26652;-74
2022/09/29 08:14:14;;;;;;;17.20;6.60;;;;;;;7.80;98.80;99045.39;105824;1281;23666;-72
2022/09/29 08:16:45;;;;;;;14.60;4.50;;;;;;;7.90;99.29;99046.81;105845;1279;22574;-74
2022/09/29 08:19:16;;;;;;;13.10;4.90;;;;;;;8.00;99.13;99047.31;105890;1281;25375;-74
2022/09/29 08:21:48;;;;;;;12.70;3.60;;;;;;;8.10;98.70;99048.77;105825;1279;26058;-74
2022/09/29 08:24:20;;;;;;;10.60;3.30;;;;;;;8.21;98.97;99049.94;105802;1281;22565;-74
2022/09/29 08:26:51;;;;;;;10.40;3.40;;;;;;;8.32;99.00;99051.08;105799;1281;22658;-73
2022/09/29 08:29:22;;;;;;;10.20;3.10;;;;;;;8.39;98.23;99051.39;105776;1281;24227;-73
2022/09/29 08:31:55;;;;;;;9.70;2.70;;;;;;;8.42;97.43;99056.48;105778;1281;25398;-73
2022/09/29 08:34:26;;;;;;;9.30;2.60;;;;;;;8.50;97.30;99060.30;105825;1281;22697;-74
2022/09/29 08:36:57;;;;;;;11.40;3.40;;;;;;;8.65;97.80;99061.67;105793;1281;24291;-75
2022/09/29 08:39:30;;;;;;;11.80;2.60;;;;;;;8.80;97.71;99067.41;105799;1281;25002;-73
2022/09/29 08:42:07;;;;;;;10.30;2.60;;;;;;;8.92;96.76;99064.40;105801;1281;22619;-73
2022/09/29 08:44:43;;;;;;;9.00;2.50;;;;;;;8.98;95.87;99069.44;105741;1281;24262;-74
2022/09/29 08:47:23;;;;;;;10.00;2.70;;;;;;;9.05;95.26;99065.04;105793;1279;25303;-73
2022/09/29 08:49:57;;;;;;;11.60;2.20;;;;;;;9.11;94.79;99063.05;105821;1281;25621;-74
2022/09/29 08:52:33;;;;;;;8.00;2.20;;;;;;;9.15;95.09;99065.86;105826;1281;25358;-74
2022/09/29 08:55:23;;;;;;;9.30;2.40;;;;;;;9.20;94.83;99067.20;105792;1280;22755;-74
2022/09/29 08:57:57;;;;;;;11.40;3.00;;;;;;;9.27;94.89;99071.34;105840;1279;22585;-75
2022/09/29 09:00:39;;;;;;;11.20;2.20;;;;;;;9.39;94.10;99069.52;105801;1281;22506;-74
2022/09/29 09:04:14;;;;;;;12.00;2.30;;;;;;;9.44;93.53;99064.08;105762;1281;25412;-75
2022/09/29 09:06:55;;;;;;;7.90;2.00;;;;;;;9.50;93.69;99066.34;105103;1284;22730;-72
2022/09/29 09:09:55;;;;;;;8.10;1.90;;;;;;;9.59;94.02;99069.38;105204;1284;22644;-72
2022/09/29 09:12:44;;;;;;;9.30;2.30;;;;;;;9.59;92.63;99069.48;105080;1287;22752;-73
2022/09/29 09:15:36;;;;;;;7.40;1.70;;;;;;;9.62;92.75;99072.12;105127;1284;24415;-73
2022/09/29 09:18:29;;;;;;;9.40;1.90;;;;;;;9.66;92.56;99074.05;105114;1284;23196;-73
2022/09/29 09:21:07;;;;;;;8.20;1.90;;;;;;;9.69;92.46;99077.40;105022;1284;24243;-74
2022/09/29 09:23:50;;;;;;;7.00;1.70;;;;;;;9.74;92.61;99075.09;105074;1284;22597;-72
2022/09/29 09:26:26;;;;;;;6.60;1.90;;;;;;;9.78;92.75;99076.12;105315;1284;22604;-72
2022/09/29 09:29:03;;;;;;;5.80;1.40;;;;;;;9.83;92.64;99074.36;105099;1284;22572;-72
2022/09/29 09:31:40;;;;;;;7.20;1.90;;;;;;;9.89;92.79;99074.33;105206;1284;22851;-75
2022/09/29 09:34:19;;;;;;;7.60;1.90;;;;;;;9.95;92.88;99073.60;105148;1283;25243;-73
2022/09/29 09:36:56;;;;;;;5.80;1.50;;;;;;;10.02;91.21;99077.11;105188;1281;24393;-73
2022/09/29 09:39:33;;;;;;;6.70;1.80;;;;;;;10.06;90.27;99079.91;105807;1278;22545;-73
2022/09/29 09:42:14;;;;;;;7.00;1.50;;;;;;;10.13;90.27;99090.70;105785;1281;24479;-74
2022/09/29 09:44:50;;;;;;;4.60;1.50;;;;;;;10.20;90.02;99094.52;105787;1281;25648;-73
2022/09/29 09:47:28;;;;;;;11.40;1.60;;;;;;;10.26;90.55;99100.21;105777;1278;25225;-74
2022/09/29 09:50:04;;;;;;;6.70;1.70;;;;;;;10.32;91.01;99101.86;105850;1278;26732;-73
2022/09/29 09:52:41;;;;;;;4.90;1.20;;;;;;;10.40;90.87;99105.77;105839;1279;25473;-73
2022/09/29 09:55:18;;;;;;;7.60;1.20;;;;;;;10.49;89.68;99103.66;105769;1281;25385;-73
2022/09/29 09:58:13;;;;;;;4.00;1.10;;;;;;;10.58;88.96;99094.92;105837;1279;22528;-73
2022/09/29 10:00:48;;;;;;;5.60;1.20;;;;;;;10.68;88.97;99097.56;105748;1279;22555;-73
2022/09/29 10:03:20;;;;;;;5.20;1.20;;;;;;;10.77;89.30;99101.63;105889;1281;24436;-73
2022/09/29 10:05:52;;;;;;;4.80;1.10;;;;;;;10.86;89.14;99097.56;105890;1277;22563;-73
2022/09/29 10:08:28;;;;;;;3.90;1.10;;;;;;;10.91;88.89;99097.71;105803;1279;24776;-73
2022/09/29 10:11:01;;;;;;;6.40;1.40;;;;;;;10.96;88.62;99093.77;105896;1278;22696;-73
2022/09/29 10:13:33;;;;;;;5.90;1.40;;;;;;;11.03;87.96;99095.11;105780;1279;22706;-75
2022/09/29 10:16:13;;;;;;;7.00;1.40;;;;;;;11.11;88.35;99097.75;105785;1279;22629;-74
2022/09/29 10:18:47;;;;;;;6.70;1.70;;;;;;;11.22;88.05;99096.30;105884;1279;22802;-74
2022/09/29 10:21:34;;;;;;;5.50;1.60;;;;;;;11.34;86.98;99095.62;105911;1279;22560;-74
2022/09/29 10:24:20;;;;;;;7.70;1.40;;;;;;;11.46;86.92;99103.36;105780;1279;22701;-73
2022/09/29 10:26:55;;;;;;;4.00;1.10;;;;;;;11.56;87.10;99104.59;105759;1279;24309;-73
2022/09/29 10:29:33;;;;;;;7.60;1.50;;;;;;;11.65;86.37;99105.04;105773;1279;22553;-72
2022/09/29 10:32:09;;;;;;;4.20;1.10;;;;;;;11.74;85.58;99103.04;105903;1279;25665;-73
2022/09/29 10:34:43;;;;;;;7.20;1.40;;;;;;;11.79;84.64;99101.85;105799;1279;24306;-73
2022/09/29 10:37:25;;;;;;;5.10;1.00;;;;;;;11.85;84.92;99098.08;105753;1279;22625;-73
2022/09/29 10:40:14;;;;;;;5.60;1.20;;;;;;;11.92;84.89;99095.73;105870;1279;25406;-73
2022/09/29 10:42:49;;;;;;;4.50;1.20;;;;;;;11.99;84.44;99096.52;105735;1279;24788;-72
2022/09/29 10:45:22;;;;;;;4.90;0.90;;;;;;;12.07;84.88;99100.24;105650;1278;249848;-73
2022/09/29 10:48:12;;;;;;;5.00;1.10;;;;;;;12.19;84.74;99107.20;105785;1278;22547;-73
2022/09/29 10:50:54;;;;;;;3.70;1.00;;;;;;;12.35;83.48;99101.77;105774;1279;22566;-72
2022/09/29 10:53:33;;;;;;;3.90;1.10;;;;;;;12.39;82.68;99100.47;105757;1278;22588;-73
2022/09/29 10:56:16;;;;;;;3.90;0.80;;;;;;;12.43;82.75;99101.95;105774;1279;25482;-73
2022/09/29 10:58:54;;;;;;;5.00;1.10;;;;;;;12.45;82.44;99110.20;105765;1278;22556;-72
2022/09/29 11:01:29;;;;;;;3.30;0.80;;;;;;;12.44;82.16;99115.33;105848;1278;26549;-73
2022/09/29 11:04:05;;;;;;;3.20;0.90;;;;;;;12.42;81.81;99116.16;105876;1278;22571;-73
2022/09/29 11:06:40;;;;;;;4.90;1.10;;;;;;;12.40;81.69;99117.14;105937;1277;25385;-73
2022/09/29 11:09:36;;;;;;;4.00;0.80;;;;;;;12.37;81.23;99118.99;105776;1279;26954;-73
2022/09/29 11:12:24;;;;;;;3.60;0.90;;;;;;;12.36;81.44;99119.05;105759;1279;25263;-73
2022/09/29 11:14:55;;;;;;;2.90;0.80;;;;;;;12.38;81.19;99110.65;105785;1279;22627;-72
2022/09/29 11:17:30;;;;;;;4.40;0.90;;;;;;;12.40;79.88;99116.23;105765;1279;22795;-73
2022/09/29 11:20:04;;;;;;;2.80;0.70;;;;;;;12.38;78.67;99113.19;105816;1279;22659;-73
2022/09/29 11:23:15;;;;;;;4.10;0.70;;;;;;;12.36;78.36;99115.48;105802;1279;22572;-72
2022/09/29 11:26:06;;;;;;;3.50;0.80;;;;;;;12.34;78.16;99116.47;105367;1284;25401;-72
2022/09/29 11:29:19;;;;;;;4.70;0.90;;;;;;;12.36;77.99;99116.91;105373;1284;22743;-74
2022/09/29 11:32:07;;;;;;;3.40;1.00;;;;;;;12.41;77.99;99118.77;104785;1288;22560;-73
2022/09/29 11:34:58;;;;;;;6.90;1.00;;;;;;;12.40;77.68;99126.96;104842;1287;25127;-74
2022/09/29 11:37:43;;;;;;;5.50;0.90;;;;;;;12.37;76.89;99123.63;104711;1287;25360;-73
2022/09/29 11:40:25;;;;;;;4.50;0.80;;;;;;;12.37;77.53;99123.38;104852;1287;25534;-73
2022/09/29 11:43:16;;;;;;;4.00;1.00;;;;;;;12.42;78.43;99121.66;104681;1287;25498;-73
2022/09/29 11:45:56;;;;;;;4.50;0.90;;;;;;;12.44;78.32;99117.77;104684;1287;23263;-74
2022/09/29 11:48:52;;;;;;;3.70;0.90;;;;;;;12.45;78.63;99119.25;104935;1287;22588;-74
2022/09/29 11:51:35;;;;;;;2.80;0.70;;;;;;;12.47;78.76;99121.98;104871;1288;22689;-72
2022/09/29 11:54:33;;;;;;;3.60;0.90;;;;;;;12.52;78.86;99117.98;105025;1287;24450;-74
2022/09/29 11:57:14;;;;;;;7.80;0.90;;;;;;;12.60;78.43;99118.80;105158;1287;22622;-73
2022/09/29 12:00:01;;;;;;;4.40;0.70;;;;;;;12.64;77.15;99122.73;104989;1287;24249;-73
2022/09/29 12:03:00;;;;;;;4.40;0.60;;;;;;;12.68;76.84;99122.95;105129;1284;24439;-73
2022/09/29 12:05:45;;;;;;;5.50;0.70;;;;;;;12.71;76.43;99123.09;105412;1283;24285;-74
2022/09/29 12:08:30;;;;;;;1.90;0.60;;;;;;;12.71;75.84;99120.60;105623;1281;25997;-72